Time;durP1;ratioP1;P1;durP2;ratioP2;P2;SDS_P1;SDS_P2;PMS_P1;PMS_P2;Temp;Humidity;BMP_temperature;BMP_pressure;BME280_temperature;BME280_humidity;BME280_pressure;Samples;Min_cycle;Max_cycle;Signal;HPM_P1;HPM_P2
2022/02/15 00:01:37;;;;;;;22.13;14.83;;;;;;;;;;6286618;22;20144;-85
2022/02/15 00:04:03;;;;;;;13.73;11.07;;;;;;;;;;6284313;22;20155;-85
2022/02/15 00:06:29;;;;;;;8.63;7.77;;;;;;;;;;6282732;22;20184;-85
2022/02/15 00:08:55;;;;;;;8.00;7.30;;;;;;;;;;6281759;22;20140;-85
2022/02/15 00:11:21;;;;;;;6.10;5.60;;;;;;;;;;6281014;22;20156;-85
2022/02/15 00:13:47;;;;;;;7.50;6.77;;;;;;;;;;6280836;22;20145;-84
2022/02/15 00:16:13;;;;;;;10.17;7.47;;;;;;;;;;6253046;22;20618;-84
2022/02/15 00:18:39;;;;;;;10.13;8.13;;;;;;;;;;6279435;22;20141;-84
2022/02/15 00:21:05;;;;;;;27.67;17.73;;;;;;;;;;6279059;22;20601;-84
2022/02/15 00:23:31;;;;;;;42.03;23.73;;;;;;;;;;6252586;22;20152;-84
2022/02/15 00:25:57;;;;;;;38.57;22.77;;;;;;;;;;6274298;22;20209;-84
2022/02/15 00:28:23;;;;;;;24.53;14.47;;;;;;;;;;6250302;23;20477;-85
2022/02/15 00:30:49;;;;;;;19.77;12.90;;;;;;;;;;6250942;23;20153;-84
2022/02/15 00:33:15;;;;;;;18.70;11.77;;;;;;;;;;6250340;23;20169;-84
2022/02/15 00:35:41;;;;;;;16.50;10.70;;;;;;;;;;6250974;23;20487;-84
2022/02/15 00:38:07;;;;;;;11.43;8.97;;;;;;;;;;6250792;23;20180;-84
2022/02/15 00:40:33;;;;;;;12.37;8.47;;;;;;;;;;6224135;23;20206;-84
2022/02/15 00:43:02;;;;;;;14.63;9.00;;;;;;;;;;6251220;23;20559;-85
2022/02/15 00:45:28;;;;;;;6.23;5.63;;;;;;;;;;6251029;23;20164;-83
2022/02/15 00:47:54;;;;;;;7.60;6.27;;;;;;;;;;6224470;23;20149;-84
2022/02/15 00:50:20;;;;;;;8.80;5.50;;;;;;;;;;6252210;23;20145;-84
2022/02/15 00:52:46;;;;;;;5.50;5.00;;;;;;;;;;6254979;23;20168;-85
2022/02/15 00:55:13;;;;;;;6.10;5.40;;;;;;;;;;6253921;23;20149;-85
2022/02/15 00:57:39;;;;;;;5.30;4.90;;;;;;;;;;6253970;23;20165;-85
2022/02/15 01:00:07;;;;;;;5.87;5.33;;;;;;;;;;6225283;23;20152;-85
2022/02/15 01:02:33;;;;;;;5.40;4.87;;;;;;;;;;6252152;23;20161;-84
2022/02/15 01:04:59;;;;;;;5.73;5.23;;;;;;;;;;6251207;23;20149;-85
2022/02/15 01:07:26;;;;;;;5.33;4.93;;;;;;;;;;6251418;23;20548;-84
2022/02/15 01:09:52;;;;;;;5.00;4.60;;;;;;;;;;6251349;23;20161;-84
2022/02/15 01:12:18;;;;;;;5.23;4.73;;;;;;;;;;6250991;23;20173;-85
2022/02/15 01:14:44;;;;;;;4.87;4.37;;;;;;;;;;6251747;23;20152;-85
2022/02/15 01:17:10;;;;;;;4.87;4.40;;;;;;;;;;6250732;23;20162;-83
2022/02/15 01:19:36;;;;;;;4.23;3.93;;;;;;;;;;6250939;23;20179;-85
2022/02/15 01:22:06;;;;;;;3.80;3.50;;;;;;;;;;6250931;23;20160;-84
2022/02/15 01:24:32;;;;;;;4.20;3.63;;;;;;;;;;6250929;23;20164;-84
2022/02/15 01:26:58;;;;;;;3.83;3.53;;;;;;;;;;6241055;22;20192;-83
2022/02/15 01:29:24;;;;;;;4.40;4.10;;;;;;;;;;6280344;22;20151;-84
2022/02/15 01:31:51;;;;;;;4.57;4.23;;;;;;;;;;6282366;22;20176;-84
2022/02/15 01:34:17;;;;;;;4.00;3.70;;;;;;;;;;6281380;22;20144;-84
2022/02/15 01:36:43;;;;;;;4.60;4.20;;;;;;;;;;6281685;22;20168;-84
2022/02/15 01:39:09;;;;;;;4.50;4.10;;;;;;;;;;6281495;22;20144;-85
2022/02/15 01:41:36;;;;;;;4.40;4.00;;;;;;;;;;6282085;22;20147;-84
2022/02/15 01:44:04;;;;;;;4.90;4.50;;;;;;;;;;6255760;22;20153;-85
2022/02/15 01:46:30;;;;;;;4.80;4.40;;;;;;;;;;6283248;22;20183;-85
2022/02/15 01:48:56;;;;;;;4.77;4.37;;;;;;;;;;6283136;22;20202;-84
2022/02/15 01:51:22;;;;;;;4.83;4.43;;;;;;;;;;6282678;22;20148;-83
2022/02/15 01:53:48;;;;;;;4.07;3.77;;;;;;;;;;6280923;22;20158;-84
2022/02/15 01:56:15;;;;;;;5.00;4.53;;;;;;;;;;6281210;22;20172;-84
2022/02/15 01:58:41;;;;;;;4.80;4.40;;;;;;;;;;6254339;22;20611;-84
2022/02/15 02:01:07;;;;;;;4.90;4.50;;;;;;;;;;6253765;22;20604;-84
2022/02/15 02:03:33;;;;;;;5.20;4.70;;;;;;;;;;6281348;22;20152;-84
2022/02/15 02:06:00;;;;;;;4.53;4.13;;;;;;;;;;6281056;22;20301;-84
2022/02/15 02:08:27;;;;;;;5.43;5.03;;;;;;;;;;6280943;22;20167;-84
2022/02/15 02:10:54;;;;;;;5.27;4.80;;;;;;;;;;6280614;22;20656;-84
2022/02/15 02:13:20;;;;;;;5.37;4.97;;;;;;;;;;6280825;22;20172;-84
2022/02/15 02:15:46;;;;;;;5.70;5.23;;;;;;;;;;6280957;22;20168;-85
2022/02/15 02:18:13;;;;;;;5.63;5.13;;;;;;;;;;6276132;22;20152;-84
2022/02/15 02:20:39;;;;;;;5.93;5.43;;;;;;;;;;6281057;22;20164;-83
2022/02/15 02:23:09;;;;;;;7.37;5.33;;;;;;;;;;6281042;22;20144;-84
2022/02/15 02:25:35;;;;;;;6.07;5.57;;;;;;;;;;6279760;22;20153;-82
2022/02/15 02:28:02;;;;;;;5.83;5.33;;;;;;;;;;6250207;23;20182;-84
2022/02/15 02:30:28;;;;;;;5.83;5.33;;;;;;;;;;6249878;23;20152;-84
2022/02/15 02:32:54;;;;;;;7.07;6.23;;;;;;;;;;6249895;23;20204;-84
2022/02/15 02:35:21;;;;;;;6.07;5.57;;;;;;;;;;6224497;23;20156;-84
2022/02/15 02:37:47;;;;;;;6.40;5.80;;;;;;;;;;6226145;23;20165;-85
2022/02/15 02:40:13;;;;;;;6.27;5.77;;;;;;;;;;6251422;23;20141;-84
2022/02/15 02:42:40;;;;;;;6.00;5.50;;;;;;;;;;6222427;23;20464;-84
2022/02/15 02:45:16;;;;;;;5.97;5.47;;;;;;;;;;6220301;23;20164;-84
2022/02/15 02:47:44;;;;;;;5.90;5.40;;;;;;;;;;6246921;23;20255;-85
2022/02/15 02:50:10;;;;;;;5.87;5.40;;;;;;;;;;6247370;23;20153;-84
2022/02/15 02:52:36;;;;;;;6.17;5.67;;;;;;;;;;6245326;23;20181;-84
2022/02/15 02:55:02;;;;;;;6.57;5.93;;;;;;;;;;6219333;23;20586;-85
2022/02/15 02:57:28;;;;;;;6.33;5.83;;;;;;;;;;6246400;23;20197;-83
2022/02/15 02:59:54;;;;;;;5.80;5.30;;;;;;;;;;6247334;23;20603;-84
2022/02/15 03:02:20;;;;;;;6.47;5.97;;;;;;;;;;6245974;23;20238;-83
2022/02/15 03:04:49;;;;;;;6.00;5.50;;;;;;;;;;6247120;23;20224;-85
2022/02/15 03:07:15;;;;;;;6.33;5.83;;;;;;;;;;6246503;23;20231;-84
2022/02/15 03:09:41;;;;;;;5.67;5.17;;;;;;;;;;6247115;23;20168;-84
2022/02/15 03:12:08;;;;;;;7.10;6.50;;;;;;;;;;6246964;23;20584;-84
2022/02/15 03:14:34;;;;;;;6.40;5.80;;;;;;;;;;6246437;23;20624;-84
2022/02/15 03:17:00;;;;;;;6.10;5.60;;;;;;;;;;6246447;23;20219;-85
2022/02/15 03:19:26;;;;;;;6.67;6.07;;;;;;;;;;6246720;23;20145;-84
2022/02/15 03:21:52;;;;;;;6.50;5.90;;;;;;;;;;6246435;23;20502;-84
2022/02/15 03:24:18;;;;;;;6.80;6.20;;;;;;;;;;6254934;23;20231;-84
2022/02/15 03:26:44;;;;;;;6.63;6.03;;;;;;;;;;6250699;22;20259;-85
2022/02/15 03:29:11;;;;;;;6.00;5.50;;;;;;;;;;6249825;23;20145;-85
2022/02/15 03:31:37;;;;;;;6.33;5.83;;;;;;;;;;6247937;23;20626;-85
2022/02/15 03:34:03;;;;;;;6.93;5.67;;;;;;;;;;6222878;23;20227;-85
2022/02/15 03:36:29;;;;;;;6.67;6.07;;;;;;;;;;6222130;23;20188;-83
2022/02/15 03:38:55;;;;;;;8.17;6.40;;;;;;;;;;6248555;23;20145;-84
2022/02/15 03:44:06;;;;;;;6.90;6.30;;;;;;;;;;6248310;23;20148;-84
2022/02/15 03:46:32;;;;;;;7.23;6.63;;;;;;;;;;6245821;23;20173;-85
2022/02/15 03:48:58;;;;;;;8.00;7.20;;;;;;;;;;6221470;23;20210;-85
2022/02/15 03:51:24;;;;;;;8.03;7.27;;;;;;;;;;6247777;23;20149;-84
2022/02/15 03:53:50;;;;;;;8.00;7.00;;;;;;;;;;6247309;23;20209;-84
2022/02/15 03:56:16;;;;;;;7.73;6.93;;;;;;;;;;6247478;23;20165;-83
2022/02/15 03:58:42;;;;;;;7.83;7.03;;;;;;;;;;6247892;23;20159;-84
2022/02/15 04:01:09;;;;;;;8.30;7.03;;;;;;;;;;6248003;23;20145;-84
2022/02/15 04:03:35;;;;;;;7.63;6.93;;;;;;;;;;6249800;23;20155;-84
2022/02/15 04:06:01;;;;;;;7.83;6.97;;;;;;;;;;6249322;23;20195;-84
2022/02/15 04:08:27;;;;;;;7.27;6.57;;;;;;;;;;6249106;23;20195;-85
2022/02/15 04:10:53;;;;;;;7.57;6.87;;;;;;;;;;6249536;23;20145;-83
2022/02/15 04:13:19;;;;;;;7.77;7.07;;;;;;;;;;6222767;23;20177;-84
2022/02/15 04:15:46;;;;;;;7.33;6.63;;;;;;;;;;6254214;23;20594;-83
2022/02/15 04:18:12;;;;;;;7.93;7.20;;;;;;;;;;6253889;23;20173;-85
2022/02/15 04:20:38;;;;;;;7.67;6.97;;;;;;;;;;6250995;23;20145;-84
2022/02/15 04:23:04;;;;;;;8.37;7.57;;;;;;;;;;6251822;23;20530;-84
2022/02/15 04:25:33;;;;;;;8.30;7.60;;;;;;;;;;6224570;23;20503;-85
2022/02/15 04:28:00;;;;;;;9.67;7.97;;;;;;;;;;6281360;22;20164;-85
2022/02/15 04:30:26;;;;;;;8.97;7.97;;;;;;;;;;6281793;22;20602;-85
2022/02/15 04:32:52;;;;;;;8.60;7.80;;;;;;;;;;6281187;22;20183;-84
2022/02/15 04:35:18;;;;;;;7.53;6.93;;;;;;;;;;6280395;22;20140;-85
2022/02/15 04:37:44;;;;;;;8.33;7.53;;;;;;;;;;6228005;22;20620;-84
2022/02/15 04:40:11;;;;;;;8.90;8.03;;;;;;;;;;6281310;22;20158;-82
2022/02/15 04:42:37;;;;;;;8.83;8.03;;;;;;;;;;6251637;22;20155;-85
2022/02/15 04:45:03;;;;;;;8.20;7.50;;;;;;;;;;6277646;22;20593;-85
2022/02/15 04:47:29;;;;;;;8.83;7.90;;;;;;;;;;6250658;22;20222;-84
2022/02/15 04:49:55;;;;;;;8.93;8.13;;;;;;;;;;6277664;22;20152;-84
2022/02/15 04:52:21;;;;;;;8.67;7.83;;;;;;;;;;6277795;22;20255;-84
2022/02/15 04:54:47;;;;;;;9.03;8.17;;;;;;;;;;6277264;22;20152;-85
2022/02/15 04:57:13;;;;;;;10.17;8.93;;;;;;;;;;6250901;22;20176;-85
2022/02/15 04:59:39;;;;;;;8.83;8.07;;;;;;;;;;6279092;22;20141;-84
2022/02/15 05:02:05;;;;;;;9.10;8.27;;;;;;;;;;6278717;22;20152;-84
2022/02/15 05:04:49;;;;;;;9.40;8.57;;;;;;;;;;6278594;22;20159;-83
2022/02/15 05:07:18;;;;;;;9.30;8.40;;;;;;;;;;6277502;22;20179;-85
2022/02/15 05:09:44;;;;;;;10.13;9.13;;;;;;;;;;6252250;22;20156;-85
2022/02/15 05:12:11;;;;;;;10.30;9.30;;;;;;;;;;6280771;22;20636;-84
2022/02/15 05:14:37;;;;;;;10.37;9.37;;;;;;;;;;6279916;22;20534;-84
2022/02/15 05:17:03;;;;;;;11.33;10.17;;;;;;;;;;6280670;22;20195;-84
2022/02/15 05:19:29;;;;;;;22.47;12.77;;;;;;;;;;6279420;22;20152;-85
2022/02/15 05:21:58;;;;;;;15.90;12.40;;;;;;;;;;6248439;22;20278;-83
2022/02/15 05:24:24;;;;;;;17.17;12.40;;;;;;;;;;6281017;22;20207;-83
2022/02/15 05:26:50;;;;;;;12.73;11.43;;;;;;;;;;6264500;22;20185;-83
2022/02/15 05:29:16;;;;;;;15.93;11.00;;;;;;;;;;6247900;23;20236;-84
2022/02/15 05:31:42;;;;;;;12.17;10.30;;;;;;;;;;6249229;23;20153;-84
2022/02/15 05:34:08;;;;;;;11.30;10.20;;;;;;;;;;6247707;23;20149;-85
2022/02/15 05:36:35;;;;;;;11.47;10.27;;;;;;;;;;6220829;23;20275;-86
2022/02/15 05:39:01;;;;;;;15.67;10.80;;;;;;;;;;6249187;23;20145;-84
2022/02/15 05:41:27;;;;;;;12.60;11.30;;;;;;;;;;6221438;23;20191;-84
2022/02/15 05:43:53;;;;;;;11.73;10.57;;;;;;;;;;6222836;23;20306;-85
2022/02/15 05:46:19;;;;;;;12.70;10.37;;;;;;;;;;6223322;23;20215;-84
2022/02/15 05:48:45;;;;;;;11.10;9.93;;;;;;;;;;6250945;23;20153;-85
2022/02/15 05:51:11;;;;;;;11.30;10.20;;;;;;;;;;6250580;23;20250;-84
2022/02/15 05:53:37;;;;;;;11.37;10.27;;;;;;;;;;6249660;23;20504;-84
2022/02/15 05:56:05;;;;;;;12.97;10.80;;;;;;;;;;6223409;23;20165;-84
2022/02/15 05:58:32;;;;;;;11.17;10.07;;;;;;;;;;6222712;23;20180;-84
2022/02/15 06:00:59;;;;;;;13.70;11.03;;;;;;;;;;6249662;23;20159;-84
2022/02/15 06:06:12;;;;;;;12.33;11.13;;;;;;;;;;6250169;23;20258;-85
2022/02/15 06:08:38;;;;;;;12.60;11.30;;;;;;;;;;6223090;23;20502;-84
2022/02/15 06:11:04;;;;;;;12.53;11.33;;;;;;;;;;6223539;23;20227;-84
2022/02/15 06:13:31;;;;;;;11.60;10.50;;;;;;;;;;6250844;23;20555;-84
2022/02/15 06:15:57;;;;;;;12.83;11.40;;;;;;;;;;6251254;23;20218;-84
2022/02/15 06:18:23;;;;;;;12.57;11.23;;;;;;;;;;6223792;23;20156;-84
2022/02/15 06:20:49;;;;;;;13.47;12.10;;;;;;;;;;6250298;23;20215;-83
2022/02/15 06:23:16;;;;;;;12.57;11.37;;;;;;;;;;6251441;23;20590;-85
2022/02/15 06:25:42;;;;;;;14.90;11.43;;;;;;;;;;6251568;22;20199;-84
2022/02/15 06:28:08;;;;;;;13.53;11.37;;;;;;;;;;6224997;23;20209;-85
2022/02/15 06:30:34;;;;;;;14.37;11.97;;;;;;;;;;6250817;23;20490;-84
2022/02/15 06:33:00;;;;;;;12.43;11.23;;;;;;;;;;6247363;23;20521;-84
2022/02/15 06:35:26;;;;;;;12.43;11.13;;;;;;;;;;6223806;23;20156;-84
2022/02/15 06:37:52;;;;;;;12.17;10.87;;;;;;;;;;6251366;23;20224;-83
2022/02/15 06:40:20;;;;;;;11.93;10.70;;;;;;;;;;6250451;23;20151;-85
2022/02/15 06:42:46;;;;;;;11.20;10.20;;;;;;;;;;6250531;23;20149;-85
2022/02/15 06:45:13;;;;;;;12.37;11.10;;;;;;;;;;6250047;23;20153;-86
2022/02/15 06:47:39;;;;;;;12.63;11.43;;;;;;;;;;6221883;23;20189;-84
2022/02/15 06:50:06;;;;;;;11.57;10.37;;;;;;;;;;6247401;23;20175;-84
2022/02/15 06:52:32;;;;;;;12.33;11.10;;;;;;;;;;6251451;23;20303;-84
2022/02/15 06:54:58;;;;;;;12.23;10.17;;;;;;;;;;6252930;23;20148;-84
2022/02/15 06:57:24;;;;;;;16.50;10.83;;;;;;;;;;6222118;23;20656;-85
2022/02/15 06:59:50;;;;;;;10.93;9.93;;;;;;;;;;6223506;23;20148;-86
2022/02/15 07:02:20;;;;;;;11.23;10.13;;;;;;;;;;6222809;23;20239;-84
2022/02/15 07:04:46;;;;;;;11.43;9.67;;;;;;;;;;6221132;23;20161;-84
2022/02/15 07:07:13;;;;;;;10.80;9.80;;;;;;;;;;6248357;23;20178;-84
2022/02/15 07:09:39;;;;;;;10.50;9.50;;;;;;;;;;6248017;23;20155;-85
2022/02/15 07:12:06;;;;;;;10.27;9.20;;;;;;;;;;6247674;23;20176;-85
2022/02/15 07:14:32;;;;;;;10.70;9.80;;;;;;;;;;6249420;23;20210;-84
2022/02/15 07:16:58;;;;;;;11.07;10.07;;;;;;;;;;6249535;23;20171;-84
2022/02/15 07:19:29;;;;;;;10.30;9.40;;;;;;;;;;6250273;23;20149;-84
2022/02/15 07:21:55;;;;;;;11.00;9.90;;;;;;;;;;6249120;23;20482;-84
2022/02/15 07:24:21;;;;;;;10.10;9.20;;;;;;;;;;6248467;23;20631;-84
2022/02/15 07:26:47;;;;;;;10.10;9.10;;;;;;;;;;6249563;22;20184;-86
2022/02/15 07:29:14;;;;;;;10.53;9.53;;;;;;;;;;6250326;23;20222;-84
2022/02/15 07:38:27;;;;;;;10.37;9.37;;;;;;;;;;6167613;23;20647;-84
2022/02/15 07:40:56;;;;;;;11.10;9.90;;;;;;;;;;6282851;22;20175;-83
2022/02/15 07:43:24;;;;;;;10.70;9.67;;;;;;;;;;6284315;22;20165;-84
2022/02/15 07:46:13;;;;;;;9.87;8.97;;;;;;;;;;6284010;22;20145;-84
2022/02/15 07:48:51;;;;;;;10.37;9.37;;;;;;;;;;6289765;22;20159;-84
2022/02/15 07:51:23;;;;;;;9.80;8.90;;;;;;;;;;6285056;22;20205;-84
2022/02/15 07:53:49;;;;;;;11.00;9.97;;;;;;;;;;6285226;22;20169;-84
2022/02/15 08:03:05;;;;;;;11.07;9.97;;;;;;;;;;6189187;23;20492;-83
2022/02/15 08:05:44;;;;;;;11.70;10.53;;;;;;;;;;6191324;23;20646;-83
2022/02/15 08:11:40;;;;;;;10.70;9.70;;;;;;;;;;6191197;23;20180;-84
2022/02/15 08:14:09;;;;;;;10.23;9.33;;;;;;;;;;6280311;22;20158;-83
2022/02/15 08:16:50;;;;;;;9.23;8.40;;;;;;;;;;6284163;22;20156;-85
2022/02/15 08:19:27;;;;;;;9.13;8.23;;;;;;;;;;6284020;22;20145;-83
2022/02/15 08:22:10;;;;;;;8.63;7.30;;;;;;;;;;6283870;22;20185;-83
2022/02/15 08:24:44;;;;;;;8.47;7.77;;;;;;;;;;6285710;22;20235;-83
2022/02/15 08:27:10;;;;;;;8.60;7.90;;;;;;;;;;6282395;22;20186;-83
2022/02/15 08:29:37;;;;;;;8.67;7.93;;;;;;;;;;6283331;22;20148;-82
2022/02/15 08:32:07;;;;;;;7.17;6.57;;;;;;;;;;6285607;22;20187;-83
2022/02/15 08:35:09;;;;;;;;;;;;;;;;;;;;;
2022/02/15 08:38:18;;;;;;;;;;;;;;;;;;;;;
2022/02/15 08:55:54;;;;;;;3.13;2.93;;;;;;;;;;6055004;23;20172;-85
2022/02/15 08:58:26;;;;;;;2.87;2.67;;;;;;;;;;6045564;23;20153;-83
2022/02/15 09:01:43;;;;;;;3.50;3.20;;;;;;;;;;6230779;23;20234;-83
2022/02/15 09:04:14;;;;;;;3.60;3.30;;;;;;;;;;6248633;23;20183;-84
2022/02/15 09:06:43;;;;;;;4.37;3.97;;;;;;;;;;6256152;23;20151;-84
2022/02/15 09:09:34;;;;;;;4.27;3.97;;;;;;;;;;6230562;23;20183;-83
2022/02/15 09:12:18;;;;;;;4.37;3.97;;;;;;;;;;6228842;23;20209;-83
2022/02/15 09:14:49;;;;;;;4.33;4.03;;;;;;;;;;6231021;23;20156;-84
2022/02/15 09:23:15;;;;;;;4.00;3.60;;;;;;;;;;6320377;22;20179;-84
2022/02/15 09:25:52;;;;;;;3.40;3.17;;;;;;;;;;6275596;22;20218;-83
2022/02/15 09:28:56;;;;;;;3.07;2.70;;;;;;;;;;6270702;22;20166;-83
2022/02/15 09:31:24;;;;;;;2.93;2.20;;;;;;;;;;6272027;22;20251;-84
2022/02/15 09:34:02;;;;;;;2.70;2.50;;;;;;;;;;6258193;22;20179;-84
2022/02/15 09:37:02;;;;;;;2.40;2.20;;;;;;;;;;6285322;22;20148;-83
2022/02/15 09:39:34;;;;;;;3.27;2.10;;;;;;;;;;6215184;22;20584;-83
2022/02/15 09:42:07;;;;;;;1.90;1.80;;;;;;;;;;6282442;22;20168;-83
2022/02/15 09:45:08;;;;;;;1.97;1.77;;;;;;;;;;6284275;22;20175;-84
2022/02/15 09:48:11;;;;;;;;;;;;;;;;;;;;;
2022/02/15 09:53:45;;;;;;;2.73;2.40;;;;;;;;;;6278719;22;20189;-83
2022/02/15 10:02:58;;;;;;;2.10;1.90;;;;;;;;;;6140577;23;20183;-83
2022/02/15 10:11:33;;;;;;;3.07;1.40;;;;;;;;;;6070241;23;20237;-82
2022/02/15 10:14:08;;;;;;;1.67;1.57;;;;;;;;;;6073520;23;20180;-83
2022/02/15 10:19:39;;;;;;;2.03;1.63;;;;;;;;;;6104229;23;20194;-82
2022/02/15 10:22:12;;;;;;;1.10;1.00;;;;;;;;;;6166640;23;20194;-84
2022/02/15 10:25:41;;;;;;;2.50;1.50;;;;;;;;;;6135658;23;20174;-83
2022/02/15 10:27:56;;;;;;;3.30;1.50;;;;;;;;;;6145584;23;20234;-83
2022/02/15 10:30:35;;;;;;;1.30;1.20;;;;;;;;;;6136117;23;20151;-83
2022/02/15 10:33:07;;;;;;;1.40;1.30;;;;;;;;;;6136916;23;20558;-84
2022/02/15 10:35:52;;;;;;;1.50;1.40;;;;;;;;;;6137870;23;20155;-86
2022/02/15 10:41:34;;;;;;;1.50;1.40;;;;;;;;;;6245082;22;20173;-83
2022/02/15 10:44:08;;;;;;;1.60;1.33;;;;;;;;;;6254574;22;20181;-83
2022/02/15 10:46:40;;;;;;;1.20;1.10;;;;;;;;;;6283335;22;20157;-82
2022/02/15 10:49:18;;;;;;;1.23;1.13;;;;;;;;;;6283071;22;20144;-81
2022/02/15 10:52:05;;;;;;;1.50;1.40;;;;;;;;;;6282110;22;20186;-82
2022/02/15 10:54:31;;;;;;;1.63;1.40;;;;;;;;;;6284384;22;20136;-83
2022/02/15 10:57:01;;;;;;;1.80;1.30;;;;;;;;;;6255972;22;20156;-82
2022/02/15 11:02:50;;;;;;;1.10;1.00;;;;;;;;;;6283841;22;20167;-83
2022/02/15 11:05:44;;;;;;;1.40;1.30;;;;;;;;;;6255529;22;20152;-84
2022/02/15 11:08:49;;;;;;;1.30;1.20;;;;;;;;;;6257440;22;20213;-83
2022/02/15 11:12:07;;;;;;;;;;;;;;;;;;;;;
2022/02/15 11:15:10;;;;;;;1.70;0.90;;;;;;;;;;6294065;22;20148;-83
2022/02/15 11:17:59;;;;;;;1.47;0.83;;;;;;;;;;6294450;22;20207;-82
2022/02/15 11:23:53;;;;;;;1.23;1.13;;;;;;;;;;6236681;22;20248;-83
2022/02/15 11:26:24;;;;;;;1.37;1.20;;;;;;;;;;6104954;23;20173;-81
2022/02/15 11:35:32;;;;;;;1.17;1.10;;;;;;;;;;6192003;23;20162;-82
2022/02/15 11:38:23;;;;;;;1.23;1.00;;;;;;;;;;6190709;23;20164;-83
2022/02/15 11:41:15;;;;;;;2.03;1.10;;;;;;;;;;6193554;23;20229;-84
2022/02/15 11:43:54;;;;;;;1.10;0.90;;;;;;;;;;6191757;23;20166;-85
2022/02/15 11:46:30;;;;;;;1.20;1.10;;;;;;;;;;6169033;23;20177;-84
2022/02/15 11:49:07;;;;;;;0.97;0.90;;;;;;;;;;6187948;23;20150;-85
2022/02/15 11:51:37;;;;;;;1.10;1.00;;;;;;;;;;6189698;23;20178;-85
2022/02/15 11:54:37;;;;;;;2.07;0.90;;;;;;;;;;6165036;23;20648;-85
2022/02/15 11:57:04;;;;;;;1.33;1.13;;;;;;;;;;6206304;22;20152;-84
2022/02/15 11:59:32;;;;;;;1.50;1.13;;;;;;;;;;6289653;22;20586;-84
2022/02/15 12:05:13;;;;;;;0.93;0.70;;;;;;;;;;6265491;22;20153;-84
2022/02/15 12:08:32;;;;;;;1.60;0.60;;;;;;;;;;6266432;22;20159;-84
2022/02/15 12:10:44;;;;;;;0.90;0.80;;;;;;;;;;6281008;22;20247;-83
2022/02/15 12:13:28;;;;;;;1.03;0.53;;;;;;;;;;6294830;22;20168;-85
2022/02/15 12:16:13;;;;;;;;;;;;;;;;;;;;;
2022/02/15 12:18:39;;;;;;;1.30;0.90;;;;;;;;;;6296913;22;20152;-81
2022/02/15 12:21:15;;;;;;;0.80;0.80;;;;;;;;;;6269772;22;20176;-80
2022/02/15 12:23:48;;;;;;;1.50;0.80;;;;;;;;;;6271301;22;20144;-82
2022/02/15 12:26:31;;;;;;;0.80;0.80;;;;;;;;;;6298347;22;20144;-85
2022/02/15 12:29:08;;;;;;;0.80;0.80;;;;;;;;;;6270618;22;20236;-85
2022/02/15 12:31:37;;;;;;;1.27;0.60;;;;;;;;;;6296562;22;20168;-84
2022/02/15 12:37:11;;;;;;;;;;;;;;;;;;;;;
2022/02/15 12:42:58;;;;;;;1.00;0.70;;;;;;;;;;6289216;22;20219;-84
2022/02/15 12:45:59;;;;;;;1.37;0.90;;;;;;;;;;6260827;22;20219;-84
2022/02/15 12:49:02;;;;;;;;;;;;;;;;;;;;;
2022/02/15 12:56:49;;;;;;;1.03;0.60;;;;;;;;;;6293467;22;20190;-83
2022/02/15 12:59:23;;;;;;;0.77;0.70;;;;;;;;;;6295137;22;20167;-84
2022/02/15 13:08:13;;;;;;;1.57;0.90;;;;;;;;;;6295227;22;20148;-84
2022/02/15 13:11:19;;;;;;;1.30;1.13;;;;;;;;;;6295926;22;20174;-84
2022/02/15 13:14:24;;;;;;;1.87;0.80;;;;;;;;;;6280873;22;20211;-84
2022/02/15 13:20:11;;;;;;;2.27;1.20;;;;;;;;;;6257963;23;20148;-85
2022/02/15 13:25:56;;;;;;;1.43;1.10;;;;;;;;;;6159916;23;20163;-85
2022/02/15 13:32:03;;;;;;;0.90;0.73;;;;;;;;;;6262363;22;20176;-85
2022/02/15 13:34:32;;;;;;;1.07;0.40;;;;;;;;;;6248270;22;20619;-85
2022/02/15 13:37:16;;;;;;;0.30;0.30;;;;;;;;;;6245687;23;20146;-84
2022/02/15 13:39:49;;;;;;;1.93;0.40;;;;;;;;;;6249136;22;20125;-84
2022/02/15 13:42:21;;;;;;;1.03;0.70;;;;;;;;;;6269182;22;20182;-84
2022/02/15 13:44:47;;;;;;;1.47;0.70;;;;;;;;;;6220155;23;20618;-84
2022/02/15 13:47:16;;;;;;;1.80;0.90;;;;;;;;;;6220087;23;20157;-84
2022/02/15 13:49:45;;;;;;;1.60;1.10;;;;;;;;;;6218242;23;20481;-84
2022/02/15 13:52:21;;;;;;;1.60;1.30;;;;;;;;;;6219089;23;20631;-84
2022/02/15 13:54:50;;;;;;;1.00;0.90;;;;;;;;;;6218768;23;20551;-85
2022/02/15 13:57:22;;;;;;;1.57;1.30;;;;;;;;;;6220389;23;20179;-84
2022/02/15 13:59:48;;;;;;;1.83;1.10;;;;;;;;;;6217946;23;20157;-84
2022/02/15 14:02:14;;;;;;;1.20;1.10;;;;;;;;;;6219764;23;20170;-83
2022/02/15 14:04:40;;;;;;;1.40;1.27;;;;;;;;;;6219562;23;20485;-84
2022/02/15 14:07:06;;;;;;;1.27;1.10;;;;;;;;;;6219784;23;20250;-84
2022/02/15 14:09:34;;;;;;;1.50;1.00;;;;;;;;;;6219038;23;20154;-84
2022/02/15 14:12:00;;;;;;;0.90;0.70;;;;;;;;;;6218442;23;20169;-82
2022/02/15 14:14:26;;;;;;;1.10;0.80;;;;;;;;;;6218923;23;20169;-82
2022/02/15 14:17:37;;;;;;;1.40;0.83;;;;;;;;;;6218028;23;20145;-83
2022/02/15 14:19:42;;;;;;;0.87;0.87;;;;;;;;;;6219451;23;20159;-84
2022/02/15 14:22:08;;;;;;;1.20;1.07;;;;;;;;;;6219024;23;20541;-83
2022/02/15 14:24:34;;;;;;;2.00;1.10;;;;;;;;;;6219616;23;20154;-84
2022/02/15 14:27:00;;;;;;;1.03;0.80;;;;;;;;;;6219452;23;20158;-83
2022/02/15 14:29:26;;;;;;;1.03;0.93;;;;;;;;;;6219351;23;20154;-84
2022/02/15 14:31:52;;;;;;;1.13;0.90;;;;;;;;;;6219161;23;20184;-84
2022/02/15 14:34:18;;;;;;;1.03;0.93;;;;;;;;;;6220156;23;20150;-84
2022/02/15 14:36:44;;;;;;;1.07;0.87;;;;;;;;;;6220597;23;20173;-84
2022/02/15 14:39:10;;;;;;;1.50;1.00;;;;;;;;;;6219792;23;20150;-83
2022/02/15 14:41:36;;;;;;;1.27;0.87;;;;;;;;;;6220679;23;20161;-84
2022/02/15 14:44:02;;;;;;;1.20;0.97;;;;;;;;;;6218549;23;20150;-84
2022/02/15 14:46:34;;;;;;;0.60;0.60;;;;;;;;;;6218212;23;20204;-83
2022/02/15 14:49:00;;;;;;;2.57;1.00;;;;;;;;;;6221085;23;20203;-81
2022/02/15 14:51:26;;;;;;;0.83;0.60;;;;;;;;;;6220633;23;20599;-84
2022/02/15 14:53:54;;;;;;;1.33;1.17;;;;;;;;;;6220351;23;20178;-84
2022/02/15 14:56:20;;;;;;;1.27;0.70;;;;;;;;;;6220312;23;20150;-84
2022/02/15 14:58:46;;;;;;;0.70;0.60;;;;;;;;;;6220179;23;20178;-84
2022/02/15 15:01:12;;;;;;;1.03;0.90;;;;;;;;;;6220135;23;20146;-83
2022/02/15 15:03:38;;;;;;;1.03;0.73;;;;;;;;;;6218463;23;20185;-82
2022/02/15 15:06:05;;;;;;;1.17;0.97;;;;;;;;;;6217808;23;20154;-82
2022/02/15 15:08:31;;;;;;;1.73;1.13;;;;;;;;;;6219795;23;20149;-81
2022/02/15 15:10:57;;;;;;;2.77;1.10;;;;;;;;;;6219866;23;20150;-83
2022/02/15 15:13:24;;;;;;;1.97;0.83;;;;;;;;;;6218391;23;20181;-84
2022/02/15 15:15:50;;;;;;;0.60;0.60;;;;;;;;;;6219586;23;20146;-82
2022/02/15 15:18:16;;;;;;;1.43;1.00;;;;;;;;;;6219471;23;20634;-84
2022/02/15 15:20:42;;;;;;;1.20;0.80;;;;;;;;;;6219347;23;20288;-84
2022/02/15 15:23:09;;;;;;;1.53;1.00;;;;;;;;;;6219478;23;20551;-83
2022/02/15 15:25:35;;;;;;;1.67;1.00;;;;;;;;;;6220027;23;20160;-84
2022/02/15 15:28:03;;;;;;;5.53;1.60;;;;;;;;;;6219832;23;20228;-82
2022/02/15 15:30:29;;;;;;;6.00;1.77;;;;;;;;;;6219632;23;20203;-83
2022/02/15 15:32:55;;;;;;;5.73;2.00;;;;;;;;;;6218986;23;20182;-83
2022/02/15 15:35:21;;;;;;;4.40;2.07;;;;;;;;;;6221052;23;20142;-82
2022/02/15 15:37:47;;;;;;;1.23;0.90;;;;;;;;;;6219117;23;20150;-83
2022/02/15 15:40:18;;;;;;;1.33;0.97;;;;;;;;;;6218307;23;20146;-83
2022/02/15 15:42:46;;;;;;;1.07;1.00;;;;;;;;;;6219197;23;20174;-83
2022/02/15 15:45:12;;;;;;;1.30;0.90;;;;;;;;;;6219282;23;20487;-83
2022/02/15 15:47:40;;;;;;;1.17;0.80;;;;;;;;;;6216752;23;20162;-83
2022/02/15 15:50:07;;;;;;;1.20;0.87;;;;;;;;;;6218925;23;20197;-82
2022/02/15 15:52:33;;;;;;;1.00;0.90;;;;;;;;;;6217944;23;20510;-83
2022/02/15 15:54:59;;;;;;;1.70;1.10;;;;;;;;;;6219586;23;20150;-83
2022/02/15 15:57:25;;;;;;;1.10;1.00;;;;;;;;;;6218948;23;20151;-83
2022/02/15 15:59:51;;;;;;;1.30;1.20;;;;;;;;;;6217915;23;20146;-83
2022/02/15 16:02:18;;;;;;;1.50;1.00;;;;;;;;;;6218493;23;20173;-83
2022/02/15 16:04:45;;;;;;;1.90;1.20;;;;;;;;;;6217296;23;20154;-83
2022/02/15 16:07:11;;;;;;;0.97;0.80;;;;;;;;;;6219452;23;20151;-83
2022/02/15 16:09:38;;;;;;;2.20;0.70;;;;;;;;;;6217144;23;20162;-83
2022/02/15 16:12:04;;;;;;;1.17;0.70;;;;;;;;;;6217961;23;20198;-83
2022/02/15 16:14:30;;;;;;;2.27;0.70;;;;;;;;;;6218635;23;20154;-83
2022/02/15 16:16:58;;;;;;;1.20;0.50;;;;;;;;;;6218444;23;20498;-83
2022/02/15 16:19:24;;;;;;;1.30;0.87;;;;;;;;;;6218820;23;20142;-83
2022/02/15 16:21:50;;;;;;;1.33;0.57;;;;;;;;;;6216946;23;20176;-81
2022/02/15 16:24:16;;;;;;;1.47;0.90;;;;;;;;;;6217778;23;20165;-82
2022/02/15 16:26:42;;;;;;;0.90;0.80;;;;;;;;;;6218804;23;20540;-82
2022/02/15 16:29:08;;;;;;;4.37;0.97;;;;;;;;;;6220526;23;20172;-82
2022/02/15 16:31:34;;;;;;;1.70;1.60;;;;;;;;;;6218656;23;20213;-83
2022/02/15 16:34:06;;;;;;;1.30;1.10;;;;;;;;;;6219756;23;20220;-82
2022/02/15 16:36:32;;;;;;;1.20;1.10;;;;;;;;;;6220987;23;20154;-83
2022/02/15 16:38:59;;;;;;;0.90;0.80;;;;;;;;;;6220865;23;20196;-83
2022/02/15 16:41:25;;;;;;;0.93;0.87;;;;;;;;;;6221739;23;20196;-83
2022/02/15 16:43:51;;;;;;;1.07;0.97;;;;;;;;;;6220857;23;20638;-81
2022/02/15 16:46:17;;;;;;;1.93;0.97;;;;;;;;;;6221543;23;20603;-82
2022/02/15 16:48:43;;;;;;;2.87;1.37;;;;;;;;;;6220714;23;20150;-82
2022/02/15 16:51:09;;;;;;;1.50;1.00;;;;;;;;;;6220964;23;20177;-81
2022/02/15 16:53:36;;;;;;;1.47;1.10;;;;;;;;;;6220311;23;20178;-81